Time;durP1;ratioP1;P1;durP2;ratioP2;P2;SDS_P1;SDS_P2;PMS_P1;PMS_P2;Temp;Humidity;BMP_temperature;BMP_pressure;BME280_temperature;BME280_humidity;BME280_pressure;Samples;Min_cycle;Max_cycle;Signal;HPM_P1;HPM_P2
2022/07/30 00:01:40;;;;;;;8.52;6.30;;;;;;;;;;5111232;28;20031;-73
2022/07/30 00:05:40;;;;;;;9.90;6.40;;;;;;;;;;5111913;27;20423;-73
2022/07/30 00:08:07;;;;;;;10.52;6.55;;;;;;;;;;5109697;28;20410;-73
2022/07/30 00:10:33;;;;;;;8.60;6.20;;;;;;;;;;5111250;28;20051;-73
2022/07/30 00:12:59;;;;;;;9.88;6.70;;;;;;;;;;5109764;28;20114;-73
2022/07/30 00:15:25;;;;;;;8.82;6.55;;;;;;;;;;5109903;28;20024;-73
2022/07/30 00:17:51;;;;;;;8.75;5.95;;;;;;;;;;5111406;28;20077;-73
2022/07/30 00:20:17;;;;;;;9.60;6.05;;;;;;;;;;5110712;28;20080;-73
2022/07/30 00:24:59;;;;;;;11.32;6.43;;;;;;;;;;5132049;27;20309;-73
2022/07/30 00:27:25;;;;;;;9.77;6.13;;;;;;;;;;5110850;28;20032;-73
2022/07/30 00:29:51;;;;;;;8.25;5.82;;;;;;;;;;5111509;28;20035;-74
2022/07/30 00:34:19;;;;;;;9.48;6.45;;;;;;;;;;5111388;27;20837;-74
2022/07/30 00:39:17;;;;;;;8.25;5.88;;;;;;;;;;5112076;27;20450;-73
2022/07/30 00:41:53;;;;;;;10.27;6.32;;;;;;;;;;5110883;28;20032;-73
2022/07/30 00:44:19;;;;;;;10.52;6.90;;;;;;;;;;5110013;28;20031;-75
2022/07/30 00:46:45;;;;;;;9.75;6.38;;;;;;;;;;5111198;28;20030;-73
2022/07/30 00:49:11;;;;;;;9.05;6.50;;;;;;;;;;5110891;28;20028;-73
2022/07/30 00:51:53;;;;;;;9.68;6.68;;;;;;;;;;5111983;27;20389;-73
2022/07/30 00:55:04;;;;;;;8.18;5.40;;;;;;;;;;5111926;27;20419;-73
2022/07/30 00:57:30;;;;;;;9.80;7.28;;;;;;;;;;5110845;28;20032;-73
2022/07/30 01:02:00;;;;;;;11.77;6.68;;;;;;;;;;5111397;27;20741;-74
2022/07/30 01:04:26;;;;;;;10.13;5.90;;;;;;;;;;5110914;28;20398;-74
2022/07/30 01:10:40;;;;;;;9.23;6.20;;;;;;;;;;5111258;27;20405;-73
2022/07/30 01:13:06;;;;;;;10.10;6.57;;;;;;;;;;5111321;28;20027;-74
2022/07/30 01:15:33;;;;;;;8.90;6.18;;;;;;;;;;5111215;28;20047;-73
2022/07/30 01:18:02;;;;;;;10.27;7.10;;;;;;;;;;5110833;28;20031;-73
2022/07/30 01:20:57;;;;;;;9.25;6.53;;;;;;;;;;5111167;28;20024;-73
2022/07/30 01:24:11;;;;;;;10.25;7.07;;;;;;;;;;5111340;27;20447;-73
2022/07/30 01:26:38;;;;;;;11.60;6.53;;;;;;;;;;5111406;28;20051;-73
2022/07/30 01:29:04;;;;;;;12.50;6.85;;;;;;;;;;5127026;28;20073;-73
2022/07/30 01:31:32;;;;;;;9.93;6.45;;;;;;;;;;5109943;28;20114;-73
2022/07/30 01:33:58;;;;;;;10.38;7.40;;;;;;;;;;5126940;28;20030;-74
2022/07/30 01:36:25;;;;;;;10.98;7.22;;;;;;;;;;5111149;28;20027;-74
2022/07/30 01:40:04;;;;;;;11.05;6.55;;;;;;;;;;5071344;28;20423;-73
2022/07/30 01:43:21;;;;;;;9.10;7.10;;;;;;;;;;5111842;27;20397;-73
2022/07/30 01:45:48;;;;;;;9.10;6.28;;;;;;;;;;5110911;28;20099;-73
2022/07/30 01:48:16;;;;;;;8.23;5.88;;;;;;;;;;5111295;28;20028;-73
2022/07/30 01:50:43;;;;;;;10.02;6.55;;;;;;;;;;5111228;28;20023;-73
2022/07/30 01:54:49;;;;;;;9.23;6.65;;;;;;;;;;5111885;27;20461;-74
2022/07/30 01:57:18;;;;;;;9.48;6.53;;;;;;;;;;5111353;28;20433;-73
2022/07/30 01:59:47;;;;;;;9.05;6.05;;;;;;;;;;5110827;28;20020;-73
2022/07/30 02:02:13;;;;;;;9.80;6.25;;;;;;;;;;5111180;28;20388;-74
2022/07/30 02:04:39;;;;;;;9.45;6.10;;;;;;;;;;5126930;28;20024;-74
2022/07/30 02:07:34;;;;;;;7.93;5.47;;;;;;;;;;5110723;28;20016;-74
2022/07/30 02:14:55;;;;;;;8.10;5.43;;;;;;;;;;5111203;28;20165;-74
2022/07/30 02:17:28;;;;;;;8.77;5.88;;;;;;;;;;5111271;28;20019;-74
2022/07/30 02:19:56;;;;;;;7.93;5.47;;;;;;;;;;5126656;28;20032;-74
2022/07/30 02:23:58;;;;;;;11.02;5.90;;;;;;;;;;5091766;27;20416;-74
2022/07/30 02:26:25;;;;;;;8.93;6.30;;;;;;;;;;5091018;28;20111;-73
2022/07/30 02:28:53;;;;;;;9.55;6.95;;;;;;;;;;5089181;28;20107;-73
2022/07/30 02:31:23;;;;;;;11.07;7.10;;;;;;;;;;5090837;28;20024;-74
2022/07/30 02:33:52;;;;;;;11.15;7.38;;;;;;;;;;5090407;28;20365;-74
2022/07/30 02:36:19;;;;;;;11.50;7.50;;;;;;;;;;5090810;28;20464;-74
2022/07/30 02:39:42;;;;;;;11.98;8.43;;;;;;;;;;5111424;27;20392;-74
2022/07/30 02:42:09;;;;;;;9.95;6.82;;;;;;;;;;5110952;28;20107;-74
2022/07/30 02:44:37;;;;;;;9.48;6.85;;;;;;;;;;5109955;28;20052;-74
2022/07/30 02:47:34;;;;;;;9.93;6.45;;;;;;;;;;5111491;27;20396;-75
2022/07/30 02:52:39;;;;;;;8.68;5.88;;;;;;;;;;5111600;27;20113;-73
2022/07/30 02:55:07;;;;;;;12.40;7.03;;;;;;;;;;5111150;28;20379;-74
2022/07/30 02:57:34;;;;;;;9.73;7.05;;;;;;;;;;5109943;28;20032;-73
2022/07/30 03:00:01;;;;;;;10.10;6.53;;;;;;;;;;5111178;28;20027;-74
2022/07/30 03:03:32;;;;;;;8.70;6.35;;;;;;;;;;5111096;27;20392;-74
2022/07/30 03:05:58;;;;;;;9.98;6.88;;;;;;;;;;5110077;28;20035;-73
2022/07/30 03:09:54;;;;;;;9.13;6.63;;;;;;;;;;5111409;27;20388;-74
2022/07/30 03:12:53;;;;;;;10.68;7.60;;;;;;;;;;5111611;27;20384;-74
2022/07/30 03:15:19;;;;;;;11.35;7.30;;;;;;;;;;5111311;28;20082;-75
2022/07/30 03:17:48;;;;;;;982.88;645.20;;;;;;;;;;5110827;28;20488;-74
2022/07/30 03:23:10;;;;;;;10.68;6.70;;;;;;;;;;5111075;27;20451;-73
2022/07/30 03:25:37;;;;;;;11.85;6.30;;;;;;;;;;5110033;28;20442;-74
2022/07/30 03:28:04;;;;;;;8.88;6.43;;;;;;;;;;5109939;28;20111;-74
2022/07/30 03:30:45;;;;;;;11.90;7.25;;;;;;;;;;5111477;27;20450;-75
2022/07/30 03:33:12;;;;;;;9.43;6.82;;;;;;;;;;5111383;28;20020;-74
2022/07/30 03:35:39;;;;;;;17.23;7.97;;;;;;;;;;5111199;28;20024;-75
2022/07/30 03:38:05;;;;;;;10.98;7.82;;;;;;;;;;5109557;28;20066;-75
2022/07/30 03:40:32;;;;;;;9.65;7.65;;;;;;;;;;5111190;28;20441;-75
2022/07/30 03:44:25;;;;;;;9.07;6.13;;;;;;;;;;5111178;27;20463;-75
2022/07/30 03:46:52;;;;;;;8.23;5.93;;;;;;;;;;5110092;28;20046;-74
2022/07/30 03:49:18;;;;;;;10.27;6.20;;;;;;;;;;5110741;28;20026;-74
2022/07/30 03:51:45;;;;;;;9.73;6.55;;;;;;;;;;5109494;28;20392;-75
2022/07/30 03:54:12;;;;;;;10.93;7.75;;;;;;;;;;5111163;28;20103;-74
2022/07/30 03:56:53;;;;;;;11.35;7.35;;;;;;;;;;5103158;27;1495559;-74
2022/07/30 03:59:19;;;;;;;9.48;7.90;;;;;;;;;;5131626;28;20440;-74
2022/07/30 04:01:45;;;;;;;9.45;7.05;;;;;;;;;;5131740;28;20432;-74
2022/07/30 04:04:11;;;;;;;9.80;7.05;;;;;;;;;;5130474;28;20062;-75
2022/07/30 04:06:41;;;;;;;10.30;7.32;;;;;;;;;;5131437;28;20097;-75
2022/07/30 04:09:11;;;;;;;11.48;7.93;;;;;;;;;;5130315;28;20026;-74
2022/07/30 04:11:38;;;;;;;11.32;7.90;;;;;;;;;;5130250;28;20031;-74
2022/07/30 04:14:44;;;;;;;10.25;7.30;;;;;;;;;;5111546;27;20389;-75
2022/07/30 04:17:18;;;;;;;11.73;6.95;;;;;;;;;;5111471;28;20549;-74
2022/07/30 04:22:34;;;;;;;10.38;7.35;;;;;;;;;;5111614;27;20326;-73
2022/07/30 04:25:43;;;;;;;13.40;7.90;;;;;;;;;;5111865;27;20402;-74
2022/07/30 04:29:16;;;;;;;11.15;7.97;;;;;;;;;;5111603;27;20473;-75
2022/07/30 04:31:42;;;;;;;12.77;8.85;;;;;;;;;;5127069;28;20387;-75
2022/07/30 04:34:12;;;;;;;11.60;8.02;;;;;;;;;;5126640;28;20372;-75
2022/07/30 04:36:39;;;;;;;10.57;7.10;;;;;;;;;;5111239;28;20055;-74
2022/07/30 04:39:43;;;;;;;10.07;7.63;;;;;;;;;;5111948;27;20462;-74
2022/07/30 04:42:09;;;;;;;11.20;7.43;;;;;;;;;;5126679;28;20024;-74
2022/07/30 04:45:25;;;;;;;9.82;7.50;;;;;;;;;;5112073;27;20427;-75
2022/07/30 04:47:54;;;;;;;11.82;7.00;;;;;;;;;;5111006;28;20024;-75
2022/07/30 04:50:22;;;;;;;10.35;7.03;;;;;;;;;;5111322;28;20024;-74
2022/07/30 04:52:48;;;;;;;9.88;7.40;;;;;;;;;;5111402;28;20020;-75
2022/07/30 04:55:15;;;;;;;9.85;7.25;;;;;;;;;;5126506;28;20030;-74
2022/07/30 04:57:42;;;;;;;9.45;7.07;;;;;;;;;;5111150;28;20028;-74
2022/07/30 05:01:58;;;;;;;10.05;6.43;;;;;;;;;;5131795;27;20116;-74
2022/07/30 05:05:26;;;;;;;12.05;7.30;;;;;;;;;;5111437;27;21045;-75
2022/07/30 05:08:07;;;;;;;9.23;6.47;;;;;;;;;;5111821;27;20396;-74
2022/07/30 05:10:33;;;;;;;9.40;6.30;;;;;;;;;;5110943;28;20047;-75
2022/07/30 05:12:59;;;;;;;11.52;6.63;;;;;;;;;;5110023;28;20049;-74
2022/07/30 05:15:25;;;;;;;9.73;6.70;;;;;;;;;;5110822;28;20028;-75
2022/07/30 05:19:43;;;;;;;10.30;5.78;;;;;;;;;;5111946;27;20400;-73
2022/07/30 05:22:09;;;;;;;9.32;6.00;;;;;;;;;;5111266;28;20020;-73
2022/07/30 05:24:35;;;;;;;8.63;6.47;;;;;;;;;;5110855;28;20491;-75
2022/07/30 05:27:02;;;;;;;11.45;7.63;;;;;;;;;;5111165;28;20019;-74
2022/07/30 05:29:40;;;;;;;11.45;7.75;;;;;;;;;;5111253;27;20392;-75
2022/07/30 05:32:07;;;;;;;13.18;7.97;;;;;;;;;;5111272;28;20027;-75
2022/07/30 05:34:33;;;;;;;12.88;8.30;;;;;;;;;;5111409;28;20024;-75
2022/07/30 05:38:31;;;;;;;11.05;8.20;;;;;;;;;;5111017;27;20393;-74
2022/07/30 05:40:58;;;;;;;11.82;7.97;;;;;;;;;;5109965;28;20415;-74
2022/07/30 05:43:24;;;;;;;13.43;8.90;;;;;;;;;;5111423;28;20447;-74
2022/07/30 05:45:50;;;;;;;13.65;8.48;;;;;;;;;;5110861;28;20459;-74
2022/07/30 05:48:16;;;;;;;12.32;8.18;;;;;;;;;;5109901;28;20024;-74
2022/07/30 05:50:42;;;;;;;11.57;8.77;;;;;;;;;;5110748;28;20035;-73
2022/07/30 05:53:39;;;;;;;12.52;8.68;;;;;;;;;;5111719;27;20446;-73
2022/07/30 05:56:05;;;;;;;11.35;8.05;;;;;;;;;;5111453;28;20035;-73
2022/07/30 05:59:56;;;;;;;11.25;8.43;;;;;;;;;;5131493;27;20317;-73
2022/07/30 06:02:23;;;;;;;10.75;8.02;;;;;;;;;;5111281;28;20024;-74
2022/07/30 06:05:39;;;;;;;12.88;8.10;;;;;;;;;;5070500;28;20899;-74
2022/07/30 06:08:05;;;;;;;9.30;6.55;;;;;;;;;;5069459;28;20393;-74
2022/07/30 06:11:08;;;;;;;12.05;8.80;;;;;;;;;;5131998;27;20490;-74
2022/07/30 06:13:34;;;;;;;12.52;8.02;;;;;;;;;;5131367;28;20460;-74
2022/07/30 06:17:05;;;;;;;11.07;7.55;;;;;;;;;;5111677;27;20397;-73
2022/07/30 06:20:42;;;;;;;9.27;7.22;;;;;;;;;;5110930;27;20400;-74
2022/07/30 06:24:47;;;;;;;10.52;7.40;;;;;;;;;;5173908;27;20329;-74
2022/07/30 06:27:13;;;;;;;10.05;6.70;;;;;;;;;;5152118;27;20030;-75
2022/07/30 06:31:11;;;;;;;12.98;7.30;;;;;;;;;;5051474;28;20436;-74
2022/07/30 06:33:37;;;;;;;1066.60;605.33;;;;;;;;;;5050378;28;20055;-75
2022/07/30 06:36:04;;;;;;;37.05;16.08;;;;;;;;;;5050617;28;20043;-75
2022/07/30 06:38:30;;;;;;;8.73;6.50;;;;;;;;;;5050586;28;20044;-74
2022/07/30 06:40:56;;;;;;;9.27;6.53;;;;;;;;;;5050035;28;20024;-74
2022/07/30 06:43:22;;;;;;;9.15;6.53;;;;;;;;;;5050785;28;20098;-74
2022/07/30 06:45:48;;;;;;;10.88;6.30;;;;;;;;;;5050524;28;20021;-74
2022/07/30 06:48:15;;;;;;;9.98;6.25;;;;;;;;;;5050086;28;20029;-73
2022/07/30 06:50:41;;;;;;;9.32;5.97;;;;;;;;;;5050269;28;20033;-74
2022/07/30 06:53:07;;;;;;;7.28;5.28;;;;;;;;;;5050240;28;20371;-74
2022/07/30 06:55:34;;;;;;;10.98;6.65;;;;;;;;;;5048565;28;20549;-74
2022/07/30 06:58:00;;;;;;;8.65;5.75;;;;;;;;;;5050296;28;20025;-76
2022/07/30 07:00:26;;;;;;;8.73;5.40;;;;;;;;;;5048961;28;20021;-74
2022/07/30 07:02:52;;;;;;;10.50;6.47;;;;;;;;;;5049704;28;20466;-74
2022/07/30 07:05:19;;;;;;;9.98;6.18;;;;;;;;;;5050143;28;20508;-74
2022/07/30 07:07:45;;;;;;;9.23;5.78;;;;;;;;;;5049969;28;20025;-74
2022/07/30 07:10:11;;;;;;;7.45;5.38;;;;;;;;;;5049525;28;20482;-74
2022/07/30 07:12:38;;;;;;;8.13;5.78;;;;;;;;;;5049964;28;20075;-74
2022/07/30 07:15:04;;;;;;;10.15;6.32;;;;;;;;;;5049656;28;20489;-74
2022/07/30 07:17:30;;;;;;;10.75;6.03;;;;;;;;;;5049821;28;20443;-75
2022/07/30 07:19:57;;;;;;;9.38;6.18;;;;;;;;;;5048550;28;20358;-74
2022/07/30 07:22:23;;;;;;;7.53;5.30;;;;;;;;;;5049329;28;20032;-75
2022/07/30 07:24:49;;;;;;;10.15;6.13;;;;;;;;;;5049834;28;20034;-75
2022/07/30 07:27:15;;;;;;;8.23;5.70;;;;;;;;;;5049728;28;20029;-75
2022/07/30 07:29:41;;;;;;;10.77;5.65;;;;;;;;;;5048957;28;20057;-75
2022/07/30 07:32:07;;;;;;;10.50;5.80;;;;;;;;;;5049744;28;20018;-76
2022/07/30 07:34:33;;;;;;;8.52;5.85;;;;;;;;;;5048316;28;20535;-75
2022/07/30 07:36:59;;;;;;;8.00;5.40;;;;;;;;;;5049360;28;20078;-75
2022/07/30 07:39:26;;;;;;;8.82;5.53;;;;;;;;;;5049376;28;20104;-75
2022/07/30 07:43:53;;;;;;;11.38;5.70;;;;;;;;;;5111302;27;20912;-74
2022/07/30 07:46:19;;;;;;;7.60;5.78;;;;;;;;;;5111252;28;20024;-73
2022/07/30 07:48:45;;;;;;;8.18;5.38;;;;;;;;;;5109834;28;20441;-74
2022/07/30 07:51:11;;;;;;;8.23;4.93;;;;;;;;;;5109441;28;20059;-74
2022/07/30 07:53:37;;;;;;;8.35;5.40;;;;;;;;;;5109802;28;20066;-74
2022/07/30 07:56:03;;;;;;;10.63;5.30;;;;;;;;;;5111227;28;20103;-74
2022/07/30 07:58:30;;;;;;;7.18;4.93;;;;;;;;;;5110639;28;20491;-75
2022/07/30 08:00:56;;;;;;;9.35;4.85;;;;;;;;;;5111009;28;20031;-75
2022/07/30 08:03:22;;;;;;;8.15;4.97;;;;;;;;;;5110861;28;20032;-75
2022/07/30 08:06:26;;;;;;;8.35;4.90;;;;;;;;;;5090560;28;20405;-74
2022/07/30 08:08:53;;;;;;;8.18;5.70;;;;;;;;;;5090864;28;20112;-75
2022/07/30 08:11:19;;;;;;;8.68;5.65;;;;;;;;;;5090432;28;20016;-74
2022/07/30 08:13:45;;;;;;;8.88;5.45;;;;;;;;;;5072709;28;20415;-75
2022/07/30 08:16:13;;;;;;;8.13;4.70;;;;;;;;;;5090796;28;20499;-75
2022/07/30 08:18:39;;;;;;;7.03;5.05;;;;;;;;;;5090362;28;20035;-75
2022/07/30 08:21:07;;;;;;;9.73;5.55;;;;;;;;;;5090639;28;20028;-75
2022/07/30 08:23:33;;;;;;;8.00;4.78;;;;;;;;;;5090693;28;20070;-75
2022/07/30 08:26:00;;;;;;;7.80;5.13;;;;;;;;;;5072019;28;20089;-75
2022/07/30 08:28:26;;;;;;;8.45;5.05;;;;;;;;;;5090583;28;20358;-75
2022/07/30 08:30:52;;;;;;;8.70;5.53;;;;;;;;;;5090433;28;20499;-75
2022/07/30 08:33:18;;;;;;;10.23;5.95;;;;;;;;;;5090101;28;20027;-75
2022/07/30 08:35:44;;;;;;;7.55;5.63;;;;;;;;;;5090406;28;20020;-75
2022/07/30 08:38:12;;;;;;;9.07;5.85;;;;;;;;;;5090327;28;20056;-74
2022/07/30 08:40:38;;;;;;;10.88;5.75;;;;;;;;;;5089725;28;20119;-74
2022/07/30 08:43:06;;;;;;;8.82;5.93;;;;;;;;;;5090214;28;20023;-74
2022/07/30 08:45:32;;;;;;;9.93;6.78;;;;;;;;;;5090132;28;20089;-76
2022/07/30 08:48:06;;;;;;;10.90;7.20;;;;;;;;;;5071569;28;20027;-75
2022/07/30 08:50:33;;;;;;;9.02;6.38;;;;;;;;;;5090044;28;20028;-76
2022/07/30 08:53:01;;;;;;;8.35;6.07;;;;;;;;;;5089976;28;20024;-75
2022/07/30 08:55:27;;;;;;;10.70;7.28;;;;;;;;;;5089635;28;20031;-75
2022/07/30 08:57:53;;;;;;;11.50;6.55;;;;;;;;;;5089894;28;20099;-75
2022/07/30 09:00:20;;;;;;;10.02;6.53;;;;;;;;;;5089908;28;20051;-75
2022/07/30 09:02:46;;;;;;;8.43;5.97;;;;;;;;;;5071290;28;20075;-75
2022/07/30 09:05:13;;;;;;;10.77;6.35;;;;;;;;;;5071323;28;20078;-75
2022/07/30 09:07:39;;;;;;;8.68;6.70;;;;;;;;;;5089234;28;20439;-75
2022/07/30 09:10:06;;;;;;;8.30;6.20;;;;;;;;;;5071546;28;20020;-75
2022/07/30 09:12:32;;;;;;;9.05;6.25;;;;;;;;;;5089589;28;20024;-75
2022/07/30 09:15:14;;;;;;;7.82;5.10;;;;;;;;;;5089379;28;20028;-75
2022/07/30 09:17:59;;;;;;;9.20;6.28;;;;;;;;;;5076886;28;20012;-75
2022/07/30 09:20:27;;;;;;;8.90;5.80;;;;;;;;;;5076063;28;20037;-75
2022/07/30 09:22:55;;;;;;;10.65;6.15;;;;;;;;;;5057638;28;20419;-75
2022/07/30 09:25:40;;;;;;;10.45;6.50;;;;;;;;;;5075824;28;20032;-75
2022/07/30 09:28:08;;;;;;;9.32;5.93;;;;;;;;;;5075822;28;20039;-76
2022/07/30 09:30:44;;;;;;;8.43;6.18;;;;;;;;;;5057497;28;20028;-76
2022/07/30 09:33:11;;;;;;;9.27;5.93;;;;;;;;;;5075867;28;20095;-76
2022/07/30 09:35:37;;;;;;;8.38;6.03;;;;;;;;;;5075188;28;20017;-76
2022/07/30 09:38:04;;;;;;;8.20;5.97;;;;;;;;;;5057729;28;20389;-76
2022/07/30 09:40:30;;;;;;;10.35;6.25;;;;;;;;;;5075864;28;20032;-76
2022/07/30 09:43:03;;;;;;;9.20;6.50;;;;;;;;;;5075124;28;20044;-76
2022/07/30 09:45:29;;;;;;;7.47;5.72;;;;;;;;;;5075573;28;20033;-76
2022/07/30 09:47:55;;;;;;;8.00;5.63;;;;;;;;;;5075572;28;20035;-76
2022/07/30 09:50:23;;;;;;;8.52;5.68;;;;;;;;;;5075207;28;20465;-76
2022/07/30 09:52:49;;;;;;;9.63;6.70;;;;;;;;;;5075383;28;20021;-75
2022/07/30 09:55:29;;;;;;;8.82;5.35;;;;;;;;;;5075594;28;20056;-76
2022/07/30 09:57:56;;;;;;;7.95;5.68;;;;;;;;;;5074977;28;20017;-76
2022/07/30 10:00:24;;;;;;;7.50;5.30;;;;;;;;;;5075449;28;20036;-76
2022/07/30 10:02:50;;;;;;;8.98;5.90;;;;;;;;;;5075423;28;20013;-77
2022/07/30 10:05:20;;;;;;;7.47;4.95;;;;;;;;;;5074514;28;20057;-76
2022/07/30 10:07:50;;;;;;;8.35;6.25;;;;;;;;;;5075186;28;20025;-77
2022/07/30 10:10:18;;;;;;;8.57;6.32;;;;;;;;;;5074978;28;20392;-75
2022/07/30 10:12:45;;;;;;;9.27;6.05;;;;;;;;;;5074731;28;20473;-75
2022/07/30 10:15:13;;;;;;;7.90;5.70;;;;;;;;;;5075121;28;20024;-75
2022/07/30 10:17:40;;;;;;;10.07;5.93;;;;;;;;;;5075099;28;20082;-75
2022/07/30 10:20:10;;;;;;;10.30;6.03;;;;;;;;;;5074507;28;20028;-77
2022/07/30 10:22:38;;;;;;;10.65;6.00;;;;;;;;;;5057057;28;20117;-75
2022/07/30 10:25:04;;;;;;;11.13;6.32;;;;;;;;;;5074355;28;20459;-76
2022/07/30 10:27:30;;;;;;;8.63;5.68;;;;;;;;;;5056381;28;20028;-76
2022/07/30 10:29:58;;;;;;;8.45;6.00;;;;;;;;;;5074542;28;20052;-76
2022/07/30 10:32:26;;;;;;;7.25;5.00;;;;;;;;;;5056447;28;20423;-80
2022/07/30 10:34:52;;;;;;;9.02;5.32;;;;;;;;;;5056699;28;20030;-77
2022/07/30 10:37:19;;;;;;;8.30;5.30;;;;;;;;;;5074505;28;20028;-77
2022/07/30 10:39:50;;;;;;;6.93;5.13;;;;;;;;;;5074260;28;20031;-75
2022/07/30 10:42:28;;;;;;;7.57;5.38;;;;;;;;;;5074543;28;20408;-77
2022/07/30 10:45:25;;;;;;;8.63;6.05;;;;;;;;;;5074330;28;20040;-76
2022/07/30 10:47:52;;;;;;;8.50;5.50;;;;;;;;;;5057479;28;20048;-75
2022/07/30 10:50:25;;;;;;;8.52;5.50;;;;;;;;;;5074313;28;20048;-76
2022/07/30 10:52:53;;;;;;;7.72;5.30;;;;;;;;;;5074419;28;20031;-77
2022/07/30 10:55:21;;;;;;;8.18;5.53;;;;;;;;;;5056288;28;20017;-76
2022/07/30 10:57:57;;;;;;;7.93;5.53;;;;;;;;;;5056378;28;20449;-76
2022/07/30 11:00:24;;;;;;;9.27;5.38;;;;;;;;;;5073802;28;20059;-76
2022/07/30 11:03:08;;;;;;;8.23;5.10;;;;;;;;;;5073987;28;20472;-75
2022/07/30 11:05:35;;;;;;;6.95;5.05;;;;;;;;;;5039268;28;20045;-75
2022/07/30 11:08:19;;;;;;;8.13;5.30;;;;;;;;;;5033665;28;20072;-75
2022/07/30 11:10:45;;;;;;;6.47;4.65;;;;;;;;;;5034074;28;20112;-75
2022/07/30 11:13:11;;;;;;;7.95;5.70;;;;;;;;;;5033942;28;20076;-75
2022/07/30 11:15:50;;;;;;;9.38;6.13;;;;;;;;;;5033718;28;20052;-75
2022/07/30 11:18:16;;;;;;;7.20;5.07;;;;;;;;;;5032612;28;20063;-75
2022/07/30 11:20:42;;;;;;;8.65;5.72;;;;;;;;;;5033997;28;20022;-75
2022/07/30 11:23:09;;;;;;;7.55;5.38;;;;;;;;;;5032083;28;20049;-75
2022/07/30 11:25:35;;;;;;;10.45;5.90;;;;;;;;;;5032411;28;20033;-75
2022/07/30 11:28:01;;;;;;;11.07;7.03;;;;;;;;;;5032532;28;20017;-76
2022/07/30 11:30:27;;;;;;;11.35;6.18;;;;;;;;;;5031975;28;20022;-76
2022/07/30 11:32:55;;;;;;;9.43;5.90;;;;;;;;;;5033589;28;20080;-76
2022/07/30 11:35:21;;;;;;;9.15;6.30;;;;;;;;;;5033332;28;20017;-76
2022/07/30 11:38:05;;;;;;;7.47;5.05;;;;;;;;;;5033612;28;20118;-75
2022/07/30 11:40:34;;;;;;;8.52;5.82;;;;;;;;;;5033370;28;20028;-76
2022/07/30 11:43:19;;;;;;;10.38;5.30;;;;;;;;;;5033116;28;20092;-76
2022/07/30 11:45:47;;;;;;;8.30;4.85;;;;;;;;;;5033517;28;20116;-76
2022/07/30 11:48:14;;;;;;;6.55;4.93;;;;;;;;;;5032199;28;20064;-75
2022/07/30 11:50:41;;;;;;;7.82;5.55;;;;;;;;;;5033094;28;20029;-75
2022/07/30 11:53:08;;;;;;;7.97;5.57;;;;;;;;;;5032429;28;20026;-75
2022/07/30 11:55:37;;;;;;;8.55;5.70;;;;;;;;;;5032013;28;20088;-75
2022/07/30 11:58:05;;;;;;;8.30;6.03;;;;;;;;;;5031551;28;20029;-75
2022/07/30 12:00:38;;;;;;;8.45;5.68;;;;;;;;;;5033403;28;20037;-76
2022/07/30 12:03:11;;;;;;;6.70;4.93;;;;;;;;;;5033495;28;20424;-75
2022/07/30 12:05:37;;;;;;;12.10;6.15;;;;;;;;;;5031307;28;20140;-75
2022/07/30 12:08:04;;;;;;;7.70;5.45;;;;;;;;;;5033119;28;20036;-75
2022/07/30 12:10:30;;;;;;;10.13;5.57;;;;;;;;;;5032980;28;20017;-75
2022/07/30 12:13:10;;;;;;;9.15;5.40;;;;;;;;;;5031810;28;20107;-76
2022/07/30 12:15:38;;;;;;;7.50;5.05;;;;;;;;;;5033080;28;20509;-75
2022/07/30 12:18:04;;;;;;;8.15;5.03;;;;;;;;;;5032697;28;20102;-75
2022/07/30 12:20:30;;;;;;;8.25;5.47;;;;;;;;;;5031793;28;20035;-75
2022/07/30 12:22:56;;;;;;;9.23;5.72;;;;;;;;;;5033153;28;20049;-76
2022/07/30 12:25:22;;;;;;;9.50;5.53;;;;;;;;;;5031191;28;20029;-76
2022/07/30 12:27:49;;;;;;;8.05;5.07;;;;;;;;;;5033036;28;20025;-76
2022/07/30 12:30:16;;;;;;;8.07;5.68;;;;;;;;;;5031738;28;20390;-76
2022/07/30 12:32:43;;;;;;;8.20;5.60;;;;;;;;;;5032587;28;20030;-77
2022/07/30 12:35:09;;;;;;;7.88;4.90;;;;;;;;;;5032923;28;20373;-76
2022/07/30 12:37:35;;;;;;;8.07;5.10;;;;;;;;;;5032959;28;20068;-76
2022/07/30 12:40:09;;;;;;;6.30;4.60;;;;;;;;;;5032642;28;20026;-76
2022/07/30 12:42:36;;;;;;;6.68;4.95;;;;;;;;;;5033125;28;20026;-76
2022/07/30 12:45:02;;;;;;;10.25;5.32;;;;;;;;;;5032912;28;20041;-76
2022/07/30 12:47:29;;;;;;;6.75;5.18;;;;;;;;;;5032568;28;20478;-76
2022/07/30 12:49:59;;;;;;;7.18;4.90;;;;;;;;;;5032919;28;20055;-76
2022/07/30 12:52:26;;;;;;;8.18;5.47;;;;;;;;;;5035303;28;20437;-76
2022/07/30 12:55:11;;;;;;;7.30;4.75;;;;;;;;;;5036192;28;20497;-76
2022/07/30 12:57:56;;;;;;;7.70;4.90;;;;;;;;;;5036571;28;20108;-76
2022/07/30 13:00:23;;;;;;;7.50;4.97;;;;;;;;;;5036110;28;20033;-76
2022/07/30 13:02:49;;;;;;;5.45;4.25;;;;;;;;;;5036480;28;20072;-76
2022/07/30 13:05:15;;;;;;;8.05;5.93;;;;;;;;;;5057412;28;20051;-76
2022/07/30 13:07:54;;;;;;;7.85;5.53;;;;;;;;;;5057953;28;20527;-75
2022/07/30 13:10:20;;;;;;;6.88;4.82;;;;;;;;;;5076278;28;20107;-76
2022/07/30 13:12:46;;;;;;;7.75;5.90;;;;;;;;;;5076240;28;20032;-75
2022/07/30 13:15:22;;;;;;;9.45;6.60;;;;;;;;;;5075738;28;20017;-75
2022/07/30 13:17:49;;;;;;;8.07;5.50;;;;;;;;;;5076086;28;20028;-75
2022/07/30 13:20:15;;;;;;;7.68;5.75;;;;;;;;;;5058149;28;20052;-75
2022/07/30 13:22:41;;;;;;;6.63;5.38;;;;;;;;;;5075566;28;20028;-75
2022/07/30 13:25:08;;;;;;;6.97;5.53;;;;;;;;;;5057940;28;20075;-75
2022/07/30 13:27:34;;;;;;;8.95;5.95;;;;;;;;;;5057983;28;20024;-75
2022/07/30 13:30:01;;;;;;;9.20;5.93;;;;;;;;;;5075511;28;20016;-75
2022/07/30 13:32:27;;;;;;;6.95;5.47;;;;;;;;;;5058008;28;20021;-75
2022/07/30 13:34:53;;;;;;;7.95;5.80;;;;;;;;;;5075596;28;20016;-75
2022/07/30 13:37:19;;;;;;;7.22;5.28;;;;;;;;;;5075788;28;20028;-75
2022/07/30 13:39:46;;;;;;;7.95;5.30;;;;;;;;;;5075682;28;20050;-75
2022/07/30 13:42:12;;;;;;;10.10;5.68;;;;;;;;;;5075458;28;20411;-75
2022/07/30 13:44:38;;;;;;;8.38;5.35;;;;;;;;;;5075656;28;20111;-76
2022/07/30 13:47:06;;;;;;;7.28;5.15;;;;;;;;;;5057732;28;20485;-76
2022/07/30 13:49:35;;;;;;;6.97;5.40;;;;;;;;;;5075192;28;20025;-76
2022/07/30 13:52:01;;;;;;;10.00;6.22;;;;;;;;;;5057531;28;20400;-75
2022/07/30 13:54:29;;;;;;;8.43;6.28;;;;;;;;;;5075488;28;20074;-75
2022/07/30 13:56:55;;;;;;;9.57;5.95;;;;;;;;;;5075074;28;20107;-74
2022/07/30 13:59:21;;;;;;;9.48;6.00;;;;;;;;;;5075374;28;20025;-74
2022/07/30 14:01:47;;;;;;;8.50;6.18;;;;;;;;;;5075377;28;20021;-75
2022/07/30 14:04:13;;;;;;;11.10;5.90;;;;;;;;;;5074478;28;20033;-74
2022/07/30 14:06:39;;;;;;;7.40;5.72;;;;;;;;;;5075517;28;20056;-75
2022/07/30 14:09:05;;;;;;;8.93;5.65;;;;;;;;;;5075177;28;20016;-75
2022/07/30 14:11:32;;;;;;;7.60;5.90;;;;;;;;;;5074824;28;20035;-75
2022/07/30 14:13:58;;;;;;;8.43;5.47;;;;;;;;;;5075391;28;20051;-76
2022/07/30 14:16:24;;;;;;;7.70;5.07;;;;;;;;;;5075106;28;20024;-75
2022/07/30 14:18:50;;;;;;;8.07;5.60;;;;;;;;;;5056511;28;20048;-74
2022/07/30 14:21:16;;;;;;;7.97;5.85;;;;;;;;;;5074966;28;20388;-74
2022/07/30 14:23:42;;;;;;;7.97;5.22;;;;;;;;;;5074893;28;20024;-75
2022/07/30 14:26:08;;;;;;;7.30;5.47;;;;;;;;;;5074312;28;20107;-75
2022/07/30 14:28:34;;;;;;;8.60;5.55;;;;;;;;;;5056814;28;20107;-75
2022/07/30 14:31:02;;;;;;;7.90;5.43;;;;;;;;;;5074758;28;20138;-76
2022/07/30 14:33:28;;;;;;;7.65;5.32;;;;;;;;;;5074359;28;20021;-75
2022/07/30 14:35:54;;;;;;;8.13;6.15;;;;;;;;;;5074817;28;20056;-75
2022/07/30 14:38:20;;;;;;;10.38;6.10;;;;;;;;;;5056377;28;20016;-75
2022/07/30 14:40:46;;;;;;;7.97;5.80;;;;;;;;;;5056722;28;20094;-74
2022/07/30 14:43:16;;;;;;;8.10;5.72;;;;;;;;;;5074515;28;20368;-76
2022/07/30 14:45:42;;;;;;;9.30;6.15;;;;;;;;;;5074275;28;20055;-75
2022/07/30 14:48:09;;;;;;;8.93;6.15;;;;;;;;;;5056558;28;20540;-76
2022/07/30 14:50:35;;;;;;;7.60;5.75;;;;;;;;;;5056385;28;20035;-75
2022/07/30 14:53:01;;;;;;;7.93;5.40;;;;;;;;;;5056014;28;20021;-74
2022/07/30 14:55:27;;;;;;;8.82;5.65;;;;;;;;;;5056178;28;20029;-76
2022/07/30 14:57:53;;;;;;;7.97;5.60;;;;;;;;;;5056302;28;20024;-75
2022/07/30 15:00:19;;;;;;;8.15;5.78;;;;;;;;;;5073728;28;20411;-75
2022/07/30 15:02:45;;;;;;;8.25;5.80;;;;;;;;;;5074149;28;20073;-76
2022/07/30 15:05:11;;;;;;;8.02;5.85;;;;;;;;;;5073919;28;20123;-75
2022/07/30 15:07:38;;;;;;;8.52;5.82;;;;;;;;;;5073434;28;20021;-75
2022/07/30 15:10:06;;;;;;;7.95;5.75;;;;;;;;;;5074037;28;20016;-76
2022/07/30 15:12:32;;;;;;;8.65;5.45;;;;;;;;;;5073931;28;20103;-76
2022/07/30 15:14:58;;;;;;;8.25;5.75;;;;;;;;;;5073289;28;20104;-76
2022/07/30 15:17:25;;;;;;;11.20;6.88;;;;;;;;;;5073915;28;20047;-76
2022/07/30 15:19:51;;;;;;;11.88;7.95;;;;;;;;;;5055876;28;20027;-76
2022/07/30 15:22:20;;;;;;;11.88;8.15;;;;;;;;;;5073433;28;20024;-76
2022/07/30 15:24:47;;;;;;;13.02;7.38;;;;;;;;;;5073838;28;20423;-76
2022/07/30 15:27:13;;;;;;;12.20;6.45;;;;;;;;;;5055647;28;20039;-74
2022/07/30 15:29:39;;;;;;;9.93;6.75;;;;;;;;;;5055300;28;20020;-75
2022/07/30 15:32:06;;;;;;;12.38;6.25;;;;;;;;;;5055609;28;20069;-75
2022/07/30 15:34:35;;;;;;;8.02;4.97;;;;;;;;;;5073153;28;20024;-75
2022/07/30 15:37:02;;;;;;;7.90;4.53;;;;;;;;;;5073646;28;20074;-76
2022/07/30 15:39:31;;;;;;;7.03;4.55;;;;;;;;;;5073474;28;20017;-76
2022/07/30 15:41:57;;;;;;;8.88;4.85;;;;;;;;;;5072987;28;20070;-76
2022/07/30 15:44:24;;;;;;;8.48;4.70;;;;;;;;;;5055259;28;20021;-76